• Join FlightAware (Why Join?)
  • Login
  • US Flag 
02:15AM EDT


 

Airport Tracker/Info


-or-


 

Live Flight TrackerFlight Track Log ✈ GJS3710 ✈ 20-May-2013 ✈ KORD - KALB

Flight Track Log - Related Links

Times and Time Zones

All times are in EDT time to prevent confusion due to time zone crossing. See the GJS3710 flight status page for this flight to view local times or setup timezone preferences in your user account.

Time Position Orientation Groundspeed Altitude Reporting Facility
EDT Latitude Longitude Course Direction KTS MPH feet Rate Location/Type
09:18PM 41.9333 -87.8500 86° East 222 255 3,900  Level Chicago TRACON
09:19PM 41.9381 -87.7961 83° East 257 296 4,700 600 Climbing Chicago Center
09:20PM 41.9528 -87.6886 80° East 282 325 4,900 1,020 Climbing Chicago Center
09:21PM 42.1599 -87.3705 66° East  Level FlightAware Approximate
09:21PM 41.9919 -87.5908 62° Northeast 301 346 6,900  Level Chicago Center
09:22PM 42.2057 -87.2328 66° East  Level FlightAware Approximate
09:22PM 42.0369 -87.4969 57° Northeast 301 346 9,500  Level Chicago Center
09:23PM 42.2516 -87.0951 66° East  Level FlightAware Approximate
09:23PM 42.0925 -87.4017 52° Northeast 322 371 11,700  Level Chicago Center
09:24PM 42.2690 -86.9523 86° East  Level FlightAware Approximate
09:24PM 42.1625 -87.2733 54° Northeast 353 406 13,700  Level Chicago Center
09:25PM 42.2275 -87.1553 53° Northeast 386 444 15,400 1,860 Climbing Chicago Center
09:26PM 42.2800 -87.0219 62° Northeast 407 468 17,600 2,040 Climbing Chicago Center
09:27PM 42.2864 -86.8667 87° East 413 475 19,700 1,800 Climbing Chicago Center
09:28PM 42.2931 -86.7114 87° East 416 479 21,400 1,560 Climbing Chicago Center
09:29PM 42.2989 -86.5364 87° East 431 496 22,900 1,260 Climbing Chicago Center
09:30PM 42.3056 -86.3775 87° East 446 513 24,100 1,320 Climbing Chicago Center
09:31PM 42.3114 -86.1731 88° East 456 525 25,700 1,500 Climbing Chicago Center
09:32PM 42.3147 -86.0006 88° East 462 532 27,200 1,200 Climbing Chicago Center
09:33PM 42.3119 -85.8286 91° East 463 533 28,200 960 Climbing Chicago Center
09:35PM 42.3086 -85.6547 91° East 467 537 29,200 960 Climbing Chicago Center
09:36PM 42.3072 -85.4758 91° East 475 547 30,200 960 Climbing Chicago Center
09:37PM 42.3039 -85.2614 91° East 479 551 31,200 900 Climbing Chicago Center
09:38PM 42.3006 -85.0825 91° East 479 551 32,100 960 Climbing Chicago Center
09:39PM 42.2978 -84.9039 91° East 478 550 33,200 1,020 Climbing Chicago Center
09:40PM 42.2928 -84.7319 92° East 470 541 34,300 840 Climbing Chicago Center
09:41PM 42.2883 -84.5644 92° East 457 526 35,000 300 Climbing Chicago Center
09:42PM 42.2981 -84.3969 85° East 455 524 35,000  Level Chicago Center
09:42PM 42.3056 -84.3203 82° East 442 509 35,000  Level Cleveland Center
09:43PM 42.3297 -84.1531 79° East 442 509 35,000  Level Cleveland Center
09:44PM 42.3533 -83.9886 79° East 447 514 35,000  Level Cleveland Center
09:45PM 42.3769 -83.8214 79° East 447 514 35,000  Level Cleveland Center
09:47PM 42.4108 -83.4911 82° East 447 514 35,000  Level Cleveland Center
09:48PM 42.4144 -83.3450 88° East 435 501 35,000  Level Cleveland Center
09:49PM 42.4225 -83.1767 86° East 435 501 35,000  Level Cleveland Center
09:50PM 42.4261 -83.0164 88° East 435 501 35,000  Level Cleveland Center
09:51PM 42.4314 -82.8533 87° East 435 501 35,000  Level Cleveland Center
09:52PM 42.4367 -82.6875 87° East 435 501 35,000  Level Cleveland Center
09:53PM 42.4417 -82.5275 88° East 435 501 35,000  Level Cleveland Center
09:54PM 42.4464 -82.3614 88° East 435 501 35,000  Level Cleveland Center
09:55PM 42.4508 -82.1956 88° East 435 501 35,000  Level Cleveland Center
09:56PM 42.4575 -82.0183 87° East 435 501 35,000  Level Cleveland Center
09:57PM 42.4592 -81.8694 89° East 442 509 35,000  Level Cleveland Center
09:58PM 42.4653 -81.6892 87° East 437 503 35,000  Level Cleveland Center
09:59PM 42.4667 -81.5233 89° East 437 503 35,000  Level Cleveland Center
10:00PM 42.4722 -81.3600 87° East 437 503 35,000  Level Cleveland Center
10:01PM 42.4731 -81.1967 90° East 437 503 35,000  Level Cleveland Center
10:02PM 42.4781 -81.0506 87° East 437 503 35,000  Level Cleveland Center
10:03PM 42.4786 -80.8872 90° East 437 503 35,000  Level Cleveland Center
10:04PM 42.4831 -80.7239 88° East 437 503 35,000  Level Cleveland Center
10:05PM 42.4831 -80.5606 90° East 437 503 35,000  Level Cleveland Center
10:06PM 42.4850 -80.3972 89° East 437 503 35,000  Level Cleveland Center
10:07PM 42.4867 -80.2172 89° East 437 503 35,000  Level Cleveland Center
10:08PM 42.4881 -80.0483 89° East 443 510 35,000  Level Cleveland Center
10:09PM 42.4914 -79.8819 88° East 436 502 35,000  Level Cleveland Center
10:10PM 42.4925 -79.7131 89° East 436 502 35,000  Level Cleveland Center
10:11PM 42.4931 -79.5469 90° East 436 502 35,000  Level Cleveland Center
10:12PM 42.4936 -79.3808 90° East 436 502 35,000  Level Cleveland Center
10:13PM 42.4958 -79.2119 89° East 441 507 35,000  Level Cleveland Center
10:14PM 42.5083 -79.0425 84° East 441 507 35,000  Level Cleveland Center
10:15PM 42.5206 -78.8733 84° East 441 507 35,000  Level Cleveland Center
10:16PM 42.5306 -78.7067 85° East 441 507 35,000  Level Cleveland Center
10:17PM 42.5422 -78.5372 85° East 446 513 35,000  Level Cleveland Center
10:18PM 42.5517 -78.3706 86° East 446 513 35,000  Level Cleveland Center
10:19PM 42.5628 -78.2011 85° East 446 513 35,000  Level Cleveland Center
10:20PM 42.5739 -78.0314 85° East 446 513 35,000 -480 Level Cleveland Center
10:21PM 42.5825 -77.8647 86° East 446 513 34,100 -960 Descending Cleveland Center
10:22PM 42.5892 -77.7122 87° East 446 513 33,100 -1,020 Descending Cleveland Center
10:24PM 42.6103 -77.3694 85° East 456 525 31,100 -1,020 Descending Boston Center
10:25PM 42.6197 -77.1981 86° East 456 525 30,200 -960 Descending Boston Center
10:26PM 42.6289 -77.0236 86° East 461 531 29,200 -660 Descending Boston Center
10:27PM 42.6381 -76.8464 86° East 461 531 29,000 -120 Descending Boston Center
10:28PM 42.6444 -76.6775 87° East 456 525 29,000  Level Boston Center
10:29PM 42.6547 -76.5086 85° East 456 525 29,000 -240 Level Boston Center
10:30PM 42.6606 -76.3425 87° East 451 519 28,600 -1,200 Descending Boston Center
10:31PM 42.6708 -76.1650 85° East 451 519 26,700 -1,860 Descending Boston Center
10:32PM 42.6764 -75.9875 88° East 463 533 24,900 -1,800 Descending Boston Center
10:33PM 42.6839 -75.8156 87° East 463 533 23,100 -1,800 Descending Boston Center
10:34PM 42.6739 -75.6569 95° East 441 507 21,400 -1,800 Descending Boston Center
10:35PM 42.5914 -75.5453 135° Southeast 393 452 19,500 -1,800 Descending Boston Center
10:36PM 42.5594 -75.4111 108° East 374 430 17,800 -1,800 Descending Boston Center
10:37PM 42.5775 -75.2794 79° East 368 423 16,000 -1,860 Descending Boston Center
10:38PM 42.5981 -75.1197 80° East 379 436 14,000 -1,920 Descending Boston Center
10:39PM 42.6086 -75.0297 81° East 383 441 12,800 -1,740 Descending Boston Center
10:39PM 42.6161 -74.9736 80° East 368 423 12,000 -1,500 Descending Boston Center
10:39PM 42.6192 -74.9258 85° East 371 427 11,600 -1,020 Descending Boston Center
10:40PM 42.6314 -74.8389 79° East 368 423 11,000 -600 Descending Boston Center
10:40PM 42.6367 -74.7911 81° East 353 406 11,000  Level Boston Center
10:41PM 42.6467 -74.7097 80° East 356 410 11,000  Level Boston Center
10:42PM 42.6397 -74.6389 98° East 329 379 11,000  Level Boston Center
10:42PM 42.6344 -74.5764 97° East 331 381 11,000 -120 Level Boston Center
10:43PM 42.6294 -74.5200 97° East 320 368 10,900  Descending Boston Center
10:43PM 42.6242 -74.4661 98° East 325 374 11,000 -420 Climbing Boston Center
10:44PM 42.6169 -74.4011 99° East 322 371 10,500 -1,440 Descending Boston Center
10:44PM 42.6117 -74.3358 96° East 325 374 9,600 -1,800 Descending Boston Center
10:45PM 42.6044 -74.2764 99° East 303 349 8,700 -1,740 Descending Boston Center
10:45PM 42.6008 -74.2369 97° East 302 348 7,900 -1,920 Descending Boston Center
10:46PM 42.5936 -74.1606 97° East 286 329 6,600 -1,920 Descending Boston Center
10:46PM 42.5903 -74.1181 96° East 295 339 6,000 -1,680 Descending Boston Center
10:47PM 42.5828 -74.0558 99° East 278 320 4,900 -1,620 Descending Boston Center
10:47PM 42.5789 -74.0275 101° East 289 333 4,400 -900 Descending Boston Center
10:48PM 42.5717 -73.9456 97° East 250 288 3,900 -1,020 Descending Boston Center
10:49PM 42.5708 -73.8581 91° East 233 268 2,600 -1,020 Descending Boston Center
10:50PM 42.6150 -73.8169 34° Northeast 216 249 2,000 -540 Descending Boston Center
10:50PM 42.6278 -73.8086 26° Northeast 208 239 2,000  Level Boston Center